Time;durP1;ratioP1;P1;durP2;ratioP2;P2;SDS_P1;SDS_P2;PMS_P1;PMS_P2;Temp;Humidity;BMP_temperature;BMP_pressure;BME280_temperature;BME280_humidity;BME280_pressure;Samples;Min_cycle;Max_cycle;Signal;HPM_P1;HPM_P2
2022/10/08 00:00:03;;;;;;;6.47;1.90;;;;;;;;;;4962326;28;20045;-85
2022/10/08 00:02:28;;;;;;;5.28;1.63;;;;;;;;;;4962566;28;20488;-85
2022/10/08 00:04:54;;;;;;;5.68;2.00;;;;;;;;;;4964772;28;20114;-85
2022/10/08 00:07:20;;;;;;;4.43;1.85;;;;;;;;;;4963010;28;20041;-85
2022/10/08 00:09:45;;;;;;;6.28;2.08;;;;;;;;;;4967671;28;20073;-85
2022/10/08 00:12:11;;;;;;;5.88;1.52;;;;;;;;;;4959597;28;20049;-83
2022/10/08 00:14:37;;;;;;;5.47;1.67;;;;;;;;;;4961617;28;20043;-85
2022/10/08 00:17:02;;;;;;;6.70;2.35;;;;;;;;;;4960776;28;20215;-86
2022/10/08 00:19:28;;;;;;;7.18;1.88;;;;;;;;;;4964909;28;20122;-85
2022/10/08 00:21:56;;;;;;;4.63;1.60;;;;;;;;;;4959480;28;20058;-84
2022/10/08 00:24:22;;;;;;;4.57;2.10;;;;;;;;;;4969706;28;20030;-85
2022/10/08 00:26:49;;;;;;;8.60;2.03;;;;;;;;;;4963799;28;20387;-85
2022/10/08 00:29:17;;;;;;;6.72;1.65;;;;;;;;;;4965025;28;20035;-85
2022/10/08 00:31:44;;;;;;;5.85;1.75;;;;;;;;;;4965160;28;20483;-84
2022/10/08 00:34:13;;;;;;;7.35;2.17;;;;;;;;;;4968087;28;20034;-85
2022/10/08 00:36:39;;;;;;;9.15;1.88;;;;;;;;;;4966142;28;20035;-85
2022/10/08 00:39:12;;;;;;;6.05;1.95;;;;;;;;;;4965190;28;20027;-85
2022/10/08 00:41:38;;;;;;;;;;;;;;;;;;4969944;28;20389;-85
2022/10/08 00:44:41;;;;;;;4.82;1.90;;;;;;;;;;4974588;28;19914;-86
2022/10/08 00:47:19;;;;;;;6.37;1.90;;;;;;;;;;4966914;28;20530;-86
2022/10/08 00:49:48;;;;;;;7.80;2.47;;;;;;;;;;4964908;28;20664;-84
2022/10/08 00:52:14;;;;;;;8.18;1.90;;;;;;;;;;4969642;28;20034;-84
2022/10/08 00:54:40;;;;;;;8.52;1.98;;;;;;;;;;4961561;28;20447;-85
2022/10/08 00:57:07;;;;;;;9.32;2.22;;;;;;;;;;4962394;28;20070;-84
2022/10/08 00:59:33;;;;;;;7.75;2.20;;;;;;;;;;4962460;28;20029;-85
2022/10/08 01:01:59;;;;;;;7.28;2.08;;;;;;;;;;4964496;28;20097;-86
2022/10/08 01:04:25;;;;;;;8.20;2.00;;;;;;;;;;4963236;28;20031;-84
2022/10/08 01:09:34;;;;;;;7.50;2.40;;;;;;;;;;5939855;23;20043;-83
2022/10/08 01:12:22;;;;;;;6.80;2.38;;;;;;;;;;5007532;28;20891;-83
2022/10/08 01:14:56;;;;;;;7.25;2.78;;;;;;;;;;5003830;28;20090;-83
2022/10/08 01:17:50;;;;;;;7.55;2.35;;;;;;;;;;5006200;23;20505;-84
2022/10/08 01:20:31;;;;;;;6.90;2.47;;;;;;;;;;4984697;28;20537;-84
2022/10/08 01:23:32;;;;;;;8.25;2.50;;;;;;;;;;4982881;28;20058;-83
2022/10/08 01:26:33;;;;;;;7.43;2.75;;;;;;;;;;4984818;28;20033;-84
2022/10/08 01:29:11;;;;;;;7.50;3.00;;;;;;;;;;4988869;28;20453;-83
2022/10/08 01:31:45;;;;;;;7.95;2.92;;;;;;;;;;4985020;28;20513;-84
2022/10/08 01:34:36;;;;;;;8.93;3.28;;;;;;;;;;4986092;28;20478;-84
2022/10/08 01:37:04;;;;;;;6.32;2.53;;;;;;;;;;4987965;28;20029;-83
2022/10/08 01:39:32;;;;;;;7.70;2.65;;;;;;;;;;4989066;28;20101;-83
2022/10/08 01:42:00;;;;;;;7.13;2.80;;;;;;;;;;4984401;28;20065;-84
2022/10/08 01:44:33;;;;;;;5.97;2.33;;;;;;;;;;4984842;28;20034;-84
2022/10/08 01:47:02;;;;;;;4.70;2.13;;;;;;;;;;4985232;28;20125;-83
2022/10/08 01:49:33;;;;;;;6.68;2.20;;;;;;;;;;4985137;28;20525;-83
2022/10/08 01:52:07;;;;;;;5.45;2.03;;;;;;;;;;4988200;28;20037;-83
2022/10/08 01:54:34;;;;;;;6.38;2.40;;;;;;;;;;4984449;28;20046;-83
2022/10/08 01:57:02;;;;;;;4.03;1.92;;;;;;;;;;4984166;28;20109;-83
2022/10/08 01:59:33;;;;;;;7.05;2.00;;;;;;;;;;4984327;28;20042;-83
2022/10/08 02:01:58;;;;;;;6.45;2.13;;;;;;;;;;4987797;28;20030;-83
2022/10/08 02:04:36;;;;;;;5.55;2.15;;;;;;;;;;4984165;28;20081;-83
2022/10/08 02:07:08;;;;;;;5.68;1.92;;;;;;;;;;4981536;28;20031;-83
2022/10/08 02:09:37;;;;;;;3.80;1.80;;;;;;;;;;4984814;28;20034;-83
2022/10/08 02:12:03;;;;;;;5.00;1.88;;;;;;;;;;4984405;28;20758;-83
2022/10/08 02:14:30;;;;;;;5.57;1.77;;;;;;;;;;4985282;28;20030;-83
2022/10/08 02:17:20;;;;;;;5.35;2.10;;;;;;;;;;4984843;28;20402;-83
2022/10/08 02:19:58;;;;;;;4.00;1.70;;;;;;;;;;4983038;28;20022;-83
2022/10/08 02:22:38;;;;;;;6.03;2.00;;;;;;;;;;4983609;28;21763;-83
2022/10/08 02:25:15;;;;;;;5.53;1.90;;;;;;;;;;4983559;28;21535;-83
2022/10/08 02:28:19;;;;;;;7.15;2.30;;;;;;;;;;4984839;28;20026;-83
2022/10/08 02:30:49;;;;;;;;;;;;;;;;;;4931893;29;20453;-83
2022/10/08 02:33:22;;;;;;;5.32;2.00;;;;;;;;;;4976536;28;19914;-83
2022/10/08 02:35:51;;;;;;;7.85;2.70;;;;;;;;;;4988059;28;20092;-83
2022/10/08 02:38:23;;;;;;;4.35;2.50;;;;;;;;;;4984100;28;20533;-83
2022/10/08 02:40:52;;;;;;;3.92;2.20;;;;;;;;;;4986152;28;20038;-84
2022/10/08 02:43:29;;;;;;;5.80;2.20;;;;;;;;;;5000548;28;20038;-83
2022/10/08 02:46:00;;;;;;;4.80;2.30;;;;;;;;;;4985134;28;20032;-83
2022/10/08 02:48:30;;;;;;;5.68;2.38;;;;;;;;;;4995881;28;20097;-83
2022/10/08 02:50:58;;;;;;;5.57;2.72;;;;;;;;;;5004022;28;20068;-83
2022/10/08 02:53:24;;;;;;;6.43;2.78;;;;;;;;;;4979790;28;20035;-84
2022/10/08 02:56:04;;;;;;;6.03;2.53;;;;;;;;;;4986560;28;20069;-83
2022/10/08 02:58:30;;;;;;;6.88;2.63;;;;;;;;;;4985159;28;20026;-83
2022/10/08 03:01:27;;;;;;;7.30;2.70;;;;;;;;;;4984365;28;20030;-83
2022/10/08 03:04:03;;;;;;;5.32;2.25;;;;;;;;;;4976447;28;20041;-83
2022/10/08 03:06:30;;;;;;;4.75;2.05;;;;;;;;;;4981073;28;20125;-84
2022/10/08 03:08:58;;;;;;;5.13;2.17;;;;;;;;;;4986901;28;20109;-83
2022/10/08 03:11:24;;;;;;;5.93;2.47;;;;;;;;;;4985738;28;20129;-83
2022/10/08 03:13:56;;;;;;;6.00;2.30;;;;;;;;;;4985555;28;20042;-83
2022/10/08 03:16:26;;;;;;;4.32;2.15;;;;;;;;;;4985130;28;20413;-83
2022/10/08 03:18:52;;;;;;;5.93;2.30;;;;;;;;;;4982696;28;20054;-83
2022/10/08 03:21:18;;;;;;;6.85;2.90;;;;;;;;;;4982059;28;20026;-83
2022/10/08 03:23:43;;;;;;;6.50;2.20;;;;;;;;;;4984495;28;20042;-83
2022/10/08 03:26:08;;;;;;;5.15;2.40;;;;;;;;;;4986717;28;20367;-83
2022/10/08 03:28:34;;;;;;;5.78;2.28;;;;;;;;;;4984297;28;20105;-83
2022/10/08 03:31:04;;;;;;;4.63;2.05;;;;;;;;;;4984696;28;20034;-83
2022/10/08 03:33:29;;;;;;;5.85;2.42;;;;;;;;;;4986557;28;20026;-84
2022/10/08 03:35:55;;;;;;;5.05;1.95;;;;;;;;;;4987092;28;20037;-83
2022/10/08 03:38:20;;;;;;;5.43;2.22;;;;;;;;;;4986593;28;20390;-83
2022/10/08 03:40:56;;;;;;;5.50;1.83;;;;;;;;;;4986044;28;20101;-83
2022/10/08 03:43:22;;;;;;;5.20;1.70;;;;;;;;;;4985675;28;20418;-83
2022/10/08 03:45:51;;;;;;;5.63;1.58;;;;;;;;;;4982915;28;20033;-84
2022/10/08 03:48:18;;;;;;;4.50;1.88;;;;;;;;;;4985286;28;20029;-83
2022/10/08 03:50:58;;;;;;;4.93;1.83;;;;;;;;;;4982651;28;20433;-84
2022/10/08 03:53:24;;;;;;;4.18;1.77;;;;;;;;;;4983726;28;20030;-84
2022/10/08 03:55:50;;;;;;;5.55;1.55;;;;;;;;;;4984811;28;20442;-83
2022/10/08 03:58:16;;;;;;;5.18;1.80;;;;;;;;;;4990174;28;20034;-83
2022/10/08 04:00:42;;;;;;;4.95;1.63;;;;;;;;;;4983625;28;20026;-84
2022/10/08 04:03:08;;;;;;;4.88;2.00;;;;;;;;;;4984448;28;20521;-83
2022/10/08 04:05:34;;;;;;;6.45;1.85;;;;;;;;;;4985830;28;20124;-84
2022/10/08 04:07:59;;;;;;;5.35;1.83;;;;;;;;;;4987525;28;20110;-84
2022/10/08 04:10:24;;;;;;;5.40;1.73;;;;;;;;;;4988818;28;20030;-83
2022/10/08 04:12:50;;;;;;;3.25;1.50;;;;;;;;;;4979364;28;20037;-83
2022/10/08 04:15:15;;;;;;;4.30;1.60;;;;;;;;;;4980813;28;20413;-84
2022/10/08 04:17:41;;;;;;;3.65;1.42;;;;;;;;;;4986173;28;20055;-84
2022/10/08 04:20:08;;;;;;;5.85;1.65;;;;;;;;;;4983209;28;20177;-83
2022/10/08 04:22:33;;;;;;;5.68;1.73;;;;;;;;;;4984938;28;20026;-83
2022/10/08 04:24:58;;;;;;;3.35;1.50;;;;;;;;;;4985231;28;20061;-83
2022/10/08 04:27:24;;;;;;;4.72;1.95;;;;;;;;;;4988932;28;20397;-84
2022/10/08 04:29:49;;;;;;;5.85;1.70;;;;;;;;;;4991341;28;20068;-84
2022/10/08 04:32:15;;;;;;;4.22;1.60;;;;;;;;;;4985323;28;20378;-84
2022/10/08 04:34:40;;;;;;;4.00;1.67;;;;;;;;;;4987407;28;20112;-84
2022/10/08 04:37:06;;;;;;;4.65;1.50;;;;;;;;;;4989390;28;20033;-84
2022/10/08 04:39:31;;;;;;;4.60;1.42;;;;;;;;;;4987120;28;20034;-84
2022/10/08 04:41:56;;;;;;;3.45;1.45;;;;;;;;;;4982839;28;20034;-84
2022/10/08 04:44:22;;;;;;;4.95;1.88;;;;;;;;;;4983946;28;20082;-84
2022/10/08 04:46:47;;;;;;;4.88;2.38;;;;;;;;;;4983289;28;20053;-84
2022/10/08 04:49:13;;;;;;;3.92;1.70;;;;;;;;;;4981708;28;20389;-84
2022/10/08 04:51:38;;;;;;;5.93;2.00;;;;;;;;;;4984279;28;20585;-84
2022/10/08 04:54:03;;;;;;;3.70;1.90;;;;;;;;;;4983823;28;20033;-83
2022/10/08 04:56:30;;;;;;;3.33;1.95;;;;;;;;;;4982614;28;20057;-84
2022/10/08 04:58:58;;;;;;;6.65;2.42;;;;;;;;;;4980195;28;20495;-83
2022/10/08 05:01:25;;;;;;;6.32;3.33;;;;;;;;;;4980849;28;20129;-83
2022/10/08 05:03:53;;;;;;;5.38;3.13;;;;;;;;;;4980320;28;20023;-84
2022/10/08 05:06:23;;;;;;;5.35;3.30;;;;;;;;;;4980421;28;20030;-84
2022/10/08 05:08:49;;;;;;;5.10;3.53;;;;;;;;;;4986842;28;20049;-83
2022/10/08 05:11:16;;;;;;;7.10;3.63;;;;;;;;;;4988748;28;20026;-84
2022/10/08 05:13:41;;;;;;;10.57;4.25;;;;;;;;;;4985534;28;20030;-83
2022/10/08 05:16:10;;;;;;;6.38;3.42;;;;;;;;;;4982863;28;20084;-83
2022/10/08 05:18:36;;;;;;;6.53;4.22;;;;;;;;;;4989233;28;20133;-83
2022/10/08 05:21:03;;;;;;;6.95;3.88;;;;;;;;;;4986704;28;20089;-84
2022/10/08 05:23:29;;;;;;;6.60;4.28;;;;;;;;;;4988750;28;20606;-83
2022/10/08 05:25:54;;;;;;;9.57;4.90;;;;;;;;;;4987122;28;20030;-84
2022/10/08 05:28:20;;;;;;;8.00;4.90;;;;;;;;;;4989587;28;20068;-84
2022/10/08 05:30:45;;;;;;;10.50;4.88;;;;;;;;;;4985187;28;20034;-84
2022/10/08 05:33:10;;;;;;;8.27;4.70;;;;;;;;;;4985092;28;20625;-83
2022/10/08 05:35:37;;;;;;;9.52;5.43;;;;;;;;;;4986104;28;20037;-84
2022/10/08 05:38:03;;;;;;;7.13;4.93;;;;;;;;;;4986282;28;20022;-84
2022/10/08 05:40:29;;;;;;;9.07;5.60;;;;;;;;;;4988211;28;20402;-84
2022/10/08 05:42:55;;;;;;;7.10;4.72;;;;;;;;;;4990351;28;20022;-83
2022/10/08 05:45:20;;;;;;;8.13;5.35;;;;;;;;;;4984335;28;20381;-83
2022/10/08 05:47:47;;;;;;;9.48;5.47;;;;;;;;;;4985125;28;20452;-83
2022/10/08 05:50:12;;;;;;;10.93;5.70;;;;;;;;;;4979479;28;20030;-84
2022/10/08 05:52:37;;;;;;;9.57;4.95;;;;;;;;;;4985031;28;20026;-84
2022/10/08 05:55:03;;;;;;;9.77;5.57;;;;;;;;;;4985917;28;20505;-83
2022/10/08 05:57:29;;;;;;;10.57;5.57;;;;;;;;;;4985111;28;20034;-83
2022/10/08 05:59:54;;;;;;;11.40;6.00;;;;;;;;;;4988679;28;20033;-83
2022/10/08 06:02:20;;;;;;;8.80;5.38;;;;;;;;;;4983033;28;20050;-83
2022/10/08 06:04:48;;;;;;;8.32;4.63;;;;;;;;;;4984895;28;20030;-84
2022/10/08 06:07:13;;;;;;;9.23;6.13;;;;;;;;;;4986350;28;20026;-84
2022/10/08 06:09:39;;;;;;;11.70;6.05;;;;;;;;;;4986184;28;20085;-83
2022/10/08 06:12:05;;;;;;;8.93;5.88;;;;;;;;;;4985194;28;20072;-83
2022/10/08 06:14:30;;;;;;;8.00;5.65;;;;;;;;;;4989244;28;21576;-83
2022/10/08 06:16:56;;;;;;;8.90;5.85;;;;;;;;;;4983389;28;20050;-83
2022/10/08 06:19:21;;;;;;;8.88;5.55;;;;;;;;;;4984272;28;20029;-83
2022/10/08 06:21:47;;;;;;;10.07;6.10;;;;;;;;;;4983742;28;20388;-83
2022/10/08 06:24:13;;;;;;;7.75;5.55;;;;;;;;;;4983159;28;20085;-83
2022/10/08 06:26:39;;;;;;;7.43;5.22;;;;;;;;;;4985504;28;20034;-83
2022/10/08 06:29:07;;;;;;;8.55;5.45;;;;;;;;;;4985471;28;20430;-83
2022/10/08 06:31:33;;;;;;;9.02;5.57;;;;;;;;;;4982565;28;20026;-83
2022/10/08 06:33:59;;;;;;;9.48;5.55;;;;;;;;;;4983377;28;20641;-83
2022/10/08 06:36:27;;;;;;;8.75;5.13;;;;;;;;;;4998791;28;20030;-82
2022/10/08 06:38:58;;;;;;;11.43;5.93;;;;;;;;;;4984244;28;20030;-83
2022/10/08 06:41:24;;;;;;;8.18;5.35;;;;;;;;;;4982001;28;20667;-83
2022/10/08 06:43:49;;;;;;;11.30;5.70;;;;;;;;;;4984492;28;20381;-83
2022/10/08 06:46:16;;;;;;;9.95;5.60;;;;;;;;;;4992237;28;20022;-83
2022/10/08 06:48:42;;;;;;;10.68;5.88;;;;;;;;;;4991464;28;20029;-84
2022/10/08 06:51:13;;;;;;;10.93;6.07;;;;;;;;;;4987477;28;20030;-83
2022/10/08 06:53:40;;;;;;;8.18;5.05;;;;;;;;;;4988659;28;20120;-83
2022/10/08 06:56:09;;;;;;;9.50;5.55;;;;;;;;;;4991190;28;20478;-83
2022/10/08 06:58:36;;;;;;;11.40;5.60;;;;;;;;;;4983623;28;20046;-83
2022/10/08 07:01:07;;;;;;;9.07;5.38;;;;;;;;;;4989536;28;20739;-83
2022/10/08 07:03:34;;;;;;;10.25;5.18;;;;;;;;;;4987605;28;20121;-83
2022/10/08 07:06:01;;;;;;;11.25;5.40;;;;;;;;;;4987253;28;20034;-83
2022/10/08 07:08:28;;;;;;;9.82;5.40;;;;;;;;;;4998590;28;20545;-83
2022/10/08 07:10:53;;;;;;;9.07;5.10;;;;;;;;;;4991904;28;20510;-84
2022/10/08 07:13:19;;;;;;;10.32;4.93;;;;;;;;;;4991773;28;20117;-83
2022/10/08 07:15:45;;;;;;;10.43;4.57;;;;;;;;;;4983478;28;20034;-83
2022/10/08 07:18:11;;;;;;;13.15;5.03;;;;;;;;;;4988234;28;20042;-83
2022/10/08 07:20:37;;;;;;;8.27;4.60;;;;;;;;;;4990037;28;20050;-83
2022/10/08 07:23:03;;;;;;;7.28;4.50;;;;;;;;;;4986927;28;20080;-83
2022/10/08 07:25:28;;;;;;;6.95;4.32;;;;;;;;;;4985776;28;20050;-84
2022/10/08 07:27:53;;;;;;;9.23;3.92;;;;;;;;;;4987017;28;20125;-83
2022/10/08 07:30:19;;;;;;;7.35;3.67;;;;;;;;;;4988830;28;20038;-83
2022/10/08 07:32:44;;;;;;;9.57;3.35;;;;;;;;;;4987565;28;20461;-83
2022/10/08 07:35:10;;;;;;;5.78;3.20;;;;;;;;;;4985043;28;20046;-83
2022/10/08 07:37:35;;;;;;;6.65;2.63;;;;;;;;;;4986601;28;20110;-83
2022/10/08 07:40:00;;;;;;;6.60;2.90;;;;;;;;;;4988066;28;20043;-83
2022/10/08 07:42:26;;;;;;;7.15;2.70;;;;;;;;;;4988428;28;20117;-83
2022/10/08 07:44:51;;;;;;;10.40;3.17;;;;;;;;;;4984959;28;20120;-83
2022/10/08 07:47:16;;;;;;;7.35;2.47;;;;;;;;;;4991030;28;20037;-83
2022/10/08 07:49:42;;;;;;;8.32;2.40;;;;;;;;;;4987205;28;20501;-83
2022/10/08 07:52:07;;;;;;;5.43;2.65;;;;;;;;;;4977029;28;20027;-82
2022/10/08 07:54:33;;;;;;;6.57;2.05;;;;;;;;;;4988316;28;20026;-83
2022/10/08 07:57:00;;;;;;;4.13;2.03;;;;;;;;;;4981509;28;20130;-82
2022/10/08 07:59:26;;;;;;;7.22;1.98;;;;;;;;;;4981005;28;20118;-82
2022/10/08 08:01:52;;;;;;;4.18;2.00;;;;;;;;;;4986875;28;20438;-82
2022/10/08 08:04:18;;;;;;;6.55;1.88;;;;;;;;;;4987907;28;20498;-82
2022/10/08 08:06:47;;;;;;;5.78;1.80;;;;;;;;;;4980999;28;20065;-82
2022/10/08 08:09:17;;;;;;;5.57;2.15;;;;;;;;;;4983040;28;20149;-83
2022/10/08 08:11:42;;;;;;;6.20;2.08;;;;;;;;;;4990305;28;20118;-83
2022/10/08 08:14:08;;;;;;;8.02;1.85;;;;;;;;;;4987102;28;20128;-83
2022/10/08 08:16:33;;;;;;;6.93;1.75;;;;;;;;;;4985724;28;20053;-83
2022/10/08 08:19:00;;;;;;;4.82;1.52;;;;;;;;;;4988485;28;20030;-83
2022/10/08 08:21:30;;;;;;;3.80;1.42;;;;;;;;;;4989542;28;20074;-82
2022/10/08 08:23:58;;;;;;;5.40;1.20;;;;;;;;;;4984974;28;20398;-82
2022/10/08 08:26:28;;;;;;;7.07;1.10;;;;;;;;;;4990139;28;20182;-82
2022/10/08 08:29:06;;;;;;;7.65;1.15;;;;;;;;;;4982447;28;20081;-84
2022/10/08 08:31:34;;;;;;;4.15;0.88;;;;;;;;;;4976628;28;20042;-84
2022/10/08 08:34:02;;;;;;;2.95;0.70;;;;;;;;;;4982937;28;20064;-84
2022/10/08 08:36:33;;;;;;;4.78;0.90;;;;;;;;;;4979190;28;20472;-83
2022/10/08 08:38:59;;;;;;;5.70;1.05;;;;;;;;;;4980586;28;20089;-83
2022/10/08 08:41:41;;;;;;;5.15;1.00;;;;;;;;;;4979215;28;20066;-84
2022/10/08 08:44:11;;;;;;;6.57;1.45;;;;;;;;;;4978538;28;20026;-83
2022/10/08 08:46:42;;;;;;;3.80;1.10;;;;;;;;;;4980849;28;20026;-84
2022/10/08 08:49:18;;;;;;;3.15;0.90;;;;;;;;;;4978140;28;20037;-83
2022/10/08 08:51:44;;;;;;;3.92;0.80;;;;;;;;;;4984388;28;20025;-82
2022/10/08 08:54:09;;;;;;;3.03;0.90;;;;;;;;;;4981833;28;20418;-82
2022/10/08 08:56:36;;;;;;;2.55;0.70;;;;;;;;;;4978958;28;20108;-83
2022/10/08 08:59:17;;;;;;;2.35;0.65;;;;;;;;;;4960373;28;20528;-83
2022/10/08 09:01:45;;;;;;;6.07;1.27;;;;;;;;;;4982489;28;20569;-84
2022/10/08 09:04:34;;;;;;;6.55;0.90;;;;;;;;;;4977342;28;20025;-83
2022/10/08 09:07:04;;;;;;;6.38;1.00;;;;;;;;;;4977805;28;20390;-83
2022/10/08 09:09:37;;;;;;;4.22;0.70;;;;;;;;;;4974254;28;20718;-83
2022/10/08 09:12:27;;;;;;;4.15;1.00;;;;;;;;;;4979156;28;20108;-83
2022/10/08 09:14:56;;;;;;;4.00;1.00;;;;;;;;;;4976524;28;20497;-83
2022/10/08 09:17:37;;;;;;;2.78;0.85;;;;;;;;;;4978649;28;20414;-83
2022/10/08 09:20:03;;;;;;;3.28;0.80;;;;;;;;;;4978313;28;20037;-83
2022/10/08 09:22:34;;;;;;;3.72;0.80;;;;;;;;;;4973317;28;20406;-84
2022/10/08 09:25:03;;;;;;;5.40;1.10;;;;;;;;;;4976821;28;21723;-83
2022/10/08 09:27:43;;;;;;;4.72;1.02;;;;;;;;;;4977533;28;20034;-83
2022/10/08 09:30:23;;;;;;;4.80;1.33;;;;;;;;;;4979681;28;20026;-83
2022/10/08 09:32:54;;;;;;;4.95;0.90;;;;;;;;;;4976714;28;20031;-83
2022/10/08 09:35:19;;;;;;;9.50;1.08;;;;;;;;;;4974527;28;20080;-83
2022/10/08 09:37:47;;;;;;;6.97;0.80;;;;;;;;;;4976630;28;20410;-83
2022/10/08 09:40:12;;;;;;;7.55;1.00;;;;;;;;;;4977463;28;20042;-83
2022/10/08 09:42:38;;;;;;;3.63;0.80;;;;;;;;;;4979169;28;20031;-83
2022/10/08 09:45:42;;;;;;;3.85;1.00;;;;;;;;;;4976297;28;20037;-83
2022/10/08 09:48:14;;;;;;;;;;;;;;;;;;4979124;28;20423;-83
2022/10/08 09:50:47;;;;;;;5.45;1.60;;;;;;;;;;4973750;28;20305;-83
2022/10/08 09:53:13;;;;;;;4.60;0.90;;;;;;;;;;4979883;28;20437;-83
2022/10/08 09:55:39;;;;;;;4.38;0.80;;;;;;;;;;4978173;28;20057;-82
2022/10/08 09:58:14;;;;;;;3.17;0.80;;;;;;;;;;4978743;28;20026;-82
2022/10/08 10:00:39;;;;;;;7.35;1.05;;;;;;;;;;4977646;28;20417;-82
2022/10/08 10:03:14;;;;;;;3.28;1.20;;;;;;;;;;4977979;28;21392;-82
2022/10/08 10:05:40;;;;;;;3.70;0.95;;;;;;;;;;4975979;28;20033;-83
2022/10/08 10:08:05;;;;;;;5.63;0.80;;;;;;;;;;4978417;28;20085;-82
2022/10/08 10:10:40;;;;;;;3.45;0.98;;;;;;;;;;4977375;28;20033;-82
2022/10/08 10:13:12;;;;;;;4.45;0.63;;;;;;;;;;4981492;28;20112;-83
2022/10/08 10:15:44;;;;;;;4.90;0.90;;;;;;;;;;4976835;28;20363;-83
2022/10/08 10:18:33;;;;;;;2.75;0.60;;;;;;;;;;4975363;28;20185;-83
2022/10/08 10:21:01;;;;;;;3.90;1.20;;;;;;;;;;4997306;28;20379;-82
2022/10/08 10:23:53;;;;;;;5.53;1.10;;;;;;;;;;4975683;28;20034;-83
2022/10/08 10:26:25;;;;;;;2.30;0.60;;;;;;;;;;4979157;28;20044;-82
2022/10/08 10:28:57;;;;;;;1.73;0.80;;;;;;;;;;4978155;28;20049;-83
2022/10/08 10:31:37;;;;;;;3.38;0.90;;;;;;;;;;4976590;28;20116;-82
2022/10/08 10:34:16;;;;;;;3.47;0.70;;;;;;;;;;4979678;28;20026;-82
2022/10/08 10:37:04;;;;;;;2.83;0.80;;;;;;;;;;4973420;28;20101;-82
2022/10/08 10:39:37;;;;;;;3.63;0.70;;;;;;;;;;4959474;28;20070;-82
2022/10/08 10:42:11;;;;;;;4.00;0.95;;;;;;;;;;4977183;28;20082;-82
2022/10/08 10:45:00;;;;;;;4.05;0.90;;;;;;;;;;4977577;28;20545;-83
2022/10/08 10:47:30;;;;;;;4.03;0.90;;;;;;;;;;4982235;28;20038;-82
2022/10/08 10:49:57;;;;;;;4.15;0.85;;;;;;;;;;4983876;28;20506;-83
2022/10/08 10:52:33;;;;;;;4.88;0.70;;;;;;;;;;4979899;28;20035;-82
2022/10/08 10:55:11;;;;;;;1.65;0.55;;;;;;;;;;4983283;28;20474;-83
2022/10/08 10:58:11;;;;;;;5.15;0.80;;;;;;;;;;4987760;28;20478;-83
2022/10/08 11:00:54;;;;;;;3.00;0.95;;;;;;;;;;4981009;28;20022;-83
2022/10/08 11:03:38;;;;;;;7.00;1.00;;;;;;;;;;4974909;28;20031;-83
2022/10/08 11:06:51;;;;;;;2.60;0.90;;;;;;;;;;4987781;28;20080;-83
2022/10/08 11:09:37;;;;;;;3.38;0.75;;;;;;;;;;4934608;28;20050;-83
2022/10/08 11:12:23;;;;;;;3.70;0.80;;;;;;;;;;4990837;28;20482;-83
2022/10/08 11:15:16;;;;;;;2.30;0.73;;;;;;;;;;4991452;28;20045;-83
2022/10/08 11:18:23;;;;;;;2.88;0.90;;;;;;;;;;4991864;28;20105;-83
2022/10/08 11:20:54;;;;;;;3.13;0.80;;;;;;;;;;4985490;28;20038;-83
2022/10/08 11:23:56;;;;;;;2.97;0.80;;;;;;;;;;4992704;28;20027;-83
2022/10/08 11:26:33;;;;;;;5.88;0.90;;;;;;;;;;4988237;28;20026;-82
2022/10/08 11:29:21;;;;;;;2.35;0.70;;;;;;;;;;4984634;28;20034;-83
2022/10/08 11:31:49;;;;;;;2.88;0.73;;;;;;;;;;4988090;28;20054;-83
2022/10/08 11:34:23;;;;;;;2.28;0.43;;;;;;;;;;4993333;28;20018;-83
2022/10/08 11:37:10;;;;;;;2.40;0.60;;;;;;;;;;4993123;28;20110;-83
2022/10/08 11:39:54;;;;;;;4.10;0.80;;;;;;;;;;4990834;28;20030;-82
2022/10/08 11:42:41;;;;;;;1.90;0.60;;;;;;;;;;4988977;28;20108;-83
2022/10/08 11:45:34;;;;;;;1.92;0.70;;;;;;;;;;4985274;28;20022;-82
2022/10/08 11:48:21;;;;;;;2.92;0.70;;;;;;;;;;4987731;28;20178;-82
2022/10/08 11:50:46;;;;;;;3.90;0.70;;;;;;;;;;4981701;28;20045;-83
2022/10/08 11:53:13;;;;;;;1.55;0.60;;;;;;;;;;4997009;28;20022;-82
2022/10/08 11:55:46;;;;;;;4.72;0.73;;;;;;;;;;4996832;28;20479;-83
2022/10/08 11:58:22;;;;;;;2.40;0.60;;;;;;;;;;4992393;28;20470;-83
2022/10/08 12:00:52;;;;;;;3.05;0.57;;;;;;;;;;4984826;28;20081;-82
2022/10/08 12:03:20;;;;;;;3.08;0.60;;;;;;;;;;4992302;28;20027;-83
2022/10/08 12:05:51;;;;;;;3.50;0.70;;;;;;;;;;4992211;28;20052;-83
2022/10/08 12:08:52;;;;;;;4.82;0.80;;;;;;;;;;4990068;28;20509;-82
2022/10/08 12:11:41;;;;;;;2.17;0.60;;;;;;;;;;4988227;28;20493;-82
2022/10/08 12:14:18;;;;;;;2.45;0.57;;;;;;;;;;4989594;28;20030;-83
2022/10/08 12:16:47;;;;;;;3.65;0.98;;;;;;;;;;4989831;28;20050;-82
2022/10/08 12:19:34;;;;;;;3.95;0.60;;;;;;;;;;4992569;28;20710;-83
2022/10/08 12:22:16;;;;;;;2.00;0.60;;;;;;;;;;4989770;28;20041;-83
2022/10/08 12:24:45;;;;;;;3.67;0.60;;;;;;;;;;4984681;28;20110;-83
2022/10/08 12:27:16;;;;;;;4.25;1.23;;;;;;;;;;4994175;28;20395;-82
2022/10/08 12:29:53;;;;;;;4.68;0.60;;;;;;;;;;4998275;28;20031;-82
2022/10/08 12:32:18;;;;;;;3.15;1.05;;;;;;;;;;5003511;28;20015;-83
2022/10/08 12:34:44;;;;;;;4.82;0.77;;;;;;;;;;4996482;28;20513;-82
2022/10/08 12:37:22;;;;;;;3.85;0.85;;;;;;;;;;4994987;28;20034;-83
2022/10/08 12:39:50;;;;;;;4.03;0.88;;;;;;;;;;4993228;28;20034;-83
2022/10/08 12:42:23;;;;;;;3.20;0.60;;;;;;;;;;4992796;28;20026;-82
2022/10/08 12:45:14;;;;;;;1.63;0.43;;;;;;;;;;4993983;28;20018;-83
2022/10/08 12:48:05;;;;;;;2.58;0.50;;;;;;;;;;4989656;28;20087;-83
2022/10/08 12:50:57;;;;;;;3.03;0.60;;;;;;;;;;4970533;28;20502;-83
2022/10/08 12:53:22;;;;;;;2.92;0.63;;;;;;;;;;4977961;28;20164;-83
2022/10/08 12:55:52;;;;;;;2.47;0.60;;;;;;;;;;4985953;28;20393;-83
2022/10/08 12:58:23;;;;;;;3.53;0.77;;;;;;;;;;4985072;28;20073;-83
2022/10/08 13:00:53;;;;;;;2.63;0.70;;;;;;;;;;4985373;28;20025;-83
2022/10/08 13:03:20;;;;;;;3.10;0.60;;;;;;;;;;4979512;28;20030;-83
2022/10/08 13:05:46;;;;;;;1.70;0.68;;;;;;;;;;4980051;28;20097;-83
2022/10/08 13:08:30;;;;;;;3.55;0.80;;;;;;;;;;4992019;28;20097;-83
2022/10/08 13:10:56;;;;;;;;;;;;;;;;;;4987609;28;20037;-83
2022/10/08 13:13:30;;;;;;;2.60;0.80;;;;;;;;;;4989918;28;19913;-83
2022/10/08 13:16:03;;;;;;;5.38;1.08;;;;;;;;;;4985418;28;20524;-83
2022/10/08 13:18:30;;;;;;;2.53;0.70;;;;;;;;;;4994694;28;20050;-83
2022/10/08 13:21:00;;;;;;;2.35;0.70;;;;;;;;;;4989316;28;20071;-83
2022/10/08 13:23:43;;;;;;;2.63;0.80;;;;;;;;;;4992675;28;20053;-83
2022/10/08 13:26:42;;;;;;;3.08;0.60;;;;;;;;;;4992815;28;20034;-82
2022/10/08 13:29:17;;;;;;;1.95;0.57;;;;;;;;;;4982985;28;20029;-83
2022/10/08 13:31:42;;;;;;;3.05;0.57;;;;;;;;;;4979179;28;20046;-83
2022/10/08 13:34:15;;;;;;;3.92;0.73;;;;;;;;;;4985400;28;20035;-83
2022/10/08 13:36:51;;;;;;;3.40;0.55;;;;;;;;;;4986157;28;20053;-83
2022/10/08 13:39:26;;;;;;;2.20;0.50;;;;;;;;;;4985582;28;20033;-83
2022/10/08 13:41:56;;;;;;;1.73;0.43;;;;;;;;;;4980118;28;20034;-83
2022/10/08 13:44:22;;;;;;;2.70;0.47;;;;;;;;;;4984674;28;20041;-83
2022/10/08 13:46:48;;;;;;;2.25;0.50;;;;;;;;;;4985211;28;20058;-83
2022/10/08 13:49:24;;;;;;;3.28;0.50;;;;;;;;;;4985267;28;20140;-83
2022/10/08 13:51:51;;;;;;;2.15;0.60;;;;;;;;;;4983684;28;20027;-83
2022/10/08 13:54:26;;;;;;;3.30;0.80;;;;;;;;;;4981741;28;20189;-83
2022/10/08 13:56:54;;;;;;;2.03;0.73;;;;;;;;;;4985496;28;20022;-83
2022/10/08 13:59:25;;;;;;;3.13;1.00;;;;;;;;;;4985952;28;20120;-83
2022/10/08 14:01:53;;;;;;;3.13;0.90;;;;;;;;;;4980934;28;20042;-83
2022/10/08 14:04:22;;;;;;;3.00;0.90;;;;;;;;;;4983095;28;20039;-83
2022/10/08 14:07:01;;;;;;;3.72;1.20;;;;;;;;;;4981417;28;20427;-83
2022/10/08 14:09:34;;;;;;;4.47;0.85;;;;;;;;;;4983231;28;20022;-83
2022/10/08 14:12:07;;;;;;;2.78;0.70;;;;;;;;;;4980296;28;20594;-83
2022/10/08 14:14:36;;;;;;;1.60;0.60;;;;;;;;;;4984457;28;20124;-82
2022/10/08 14:17:08;;;;;;;3.08;0.65;;;;;;;;;;4984156;28;20502;-83
2022/10/08 14:20:08;;;;;;;2.30;0.60;;;;;;;;;;4985883;28;20062;-83
2022/10/08 14:22:59;;;;;;;3.65;0.70;;;;;;;;;;4983467;28;20054;-83
2022/10/08 14:25:34;;;;;;;3.08;0.70;;;;;;;;;;4979433;28;20256;-83
2022/10/08 14:28:39;;;;;;;1.85;0.73;;;;;;;;;;5001120;28;20153;-84
2022/10/08 14:31:20;;;;;;;1.17;0.55;;;;;;;;;;4985908;28;20041;-84
2022/10/08 14:34:10;;;;;;;4.10;0.70;;;;;;;;;;4982493;28;20026;-84
2022/10/08 14:36:54;;;;;;;2.15;0.70;;;;;;;;;;4981625;28;20398;-83
2022/10/08 14:39:45;;;;;;;;;;;;;;;;;;;;;
2022/10/08 14:42:14;;;;;;;4.68;0.95;;;;;;;;;;4985258;28;20482;-83
2022/10/08 14:47:41;;;;;;;4.18;0.90;;;;;;;;;;4987795;28;20050;-83
2022/10/08 14:50:13;;;;;;;4.07;1.20;;;;;;;;;;4988544;28;20030;-83
2022/10/08 14:52:41;;;;;;;4.40;0.90;;;;;;;;;;4988591;28;20030;-82
2022/10/08 14:55:22;;;;;;;4.13;0.93;;;;;;;;;;4990979;28;20058;-82
2022/10/08 14:57:52;;;;;;;2.17;0.80;;;;;;;;;;4984879;28;20033;-82
2022/10/08 15:00:29;;;;;;;5.00;0.93;;;;;;;;;;4990596;28;20524;-83
2022/10/08 15:03:07;;;;;;;1.83;0.60;;;;;;;;;;4985442;28;20026;-83
2022/10/08 15:05:50;;;;;;;3.10;0.70;;;;;;;;;;4984501;28;20057;-83
2022/10/08 15:08:19;;;;;;;2.45;0.80;;;;;;;;;;4981621;28;20038;-83
2022/10/08 15:10:48;;;;;;;3.53;0.80;;;;;;;;;;4983929;28;20042;-83
2022/10/08 15:13:29;;;;;;;3.00;0.98;;;;;;;;;;4988732;28;20474;-83
2022/10/08 15:16:16;;;;;;;;;;;;;;;;;;;;;
2022/10/08 15:18:48;;;;;;;5.88;1.00;;;;;;;;;;4987320;28;20034;-82